createdAt,value
2022-11-12T00:02:42.890Z,102509.84
2022-11-12T00:05:28.427Z,102513.00
2022-11-12T00:08:13.665Z,102509.53
2022-11-12T00:10:58.815Z,102503.38
2022-11-12T00:13:44.065Z,102511.13
2022-11-12T00:16:29.396Z,102503.38
2022-11-12T00:19:14.638Z,102515.09
2022-11-12T00:22:00.025Z,102508.63
2022-11-12T00:24:45.571Z,102510.91
2022-11-12T00:27:34.325Z,102517.03
2022-11-12T00:30:19.591Z,102521.41
2022-11-12T00:33:05.315Z,102523.72
2022-11-12T00:35:50.544Z,102537.09
2022-11-12T00:38:35.976Z,102529.56
2022-11-12T00:41:21.289Z,102536.56
2022-11-12T00:44:06.502Z,102522.34
2022-11-12T00:46:51.939Z,102534.25
2022-11-12T00:49:37.043Z,102526.16
2022-11-12T00:52:22.287Z,102529.63
2022-11-12T00:55:07.734Z,102531.19
2022-11-12T00:57:52.810Z,102531.50
2022-11-12T01:00:38.211Z,102539.44
2022-11-12T01:03:23.691Z,102537.16
2022-11-12T01:06:15.401Z,102542.63
2022-11-12T01:09:00.543Z,102540.56
2022-11-12T01:11:45.867Z,102545.72
2022-11-12T01:14:31.097Z,102532.22
2022-11-12T01:17:16.177Z,102545.63
2022-11-12T01:20:01.876Z,102540.06
2022-11-12T01:22:47.305Z,102547.63
2022-11-12T01:25:32.390Z,102544.47
2022-11-12T01:28:17.662Z,102536.25
2022-11-12T01:31:20.794Z,102544.41
2022-11-12T01:34:08.809Z,102542.94
2022-11-12T01:36:54.397Z,102537.41
2022-11-12T01:39:39.537Z,102542.94
2022-11-12T01:42:29.427Z,102531.06
2022-11-12T01:45:15.873Z,102534.19
2022-11-12T01:48:01.536Z,102534.97
2022-11-12T01:50:46.978Z,102525.69
2022-11-12T01:53:36.803Z,102548.56
2022-11-12T01:56:23.774Z,102543.31
2022-11-12T01:59:15.295Z,102536.47
2022-11-12T02:02:00.431Z,102542.97
2022-11-12T02:04:46.871Z,102550.16
2022-11-12T02:07:33.088Z,102553.72
2022-11-12T02:10:19.811Z,102542.97
2022-11-12T02:13:24.383Z,102545.34
2022-11-12T02:16:10.830Z,102538.94
2022-11-12T02:18:55.912Z,102536.84
2022-11-12T02:21:41.972Z,102544.09
2022-11-12T02:24:27.109Z,102546.19
2022-11-12T02:27:12.473Z,102540.78
2022-11-12T02:29:57.953Z,102543.59
2022-11-12T02:32:43.329Z,102539.22
2022-11-12T02:35:28.731Z,102541.09
2022-11-12T02:38:13.973Z,102543.03
2022-11-12T02:40:59.280Z,102543.03
2022-11-12T02:43:44.863Z,102544.44
2022-11-12T02:46:30.054Z,102533.06
2022-11-12T02:49:15.417Z,102537.25
2022-11-12T02:52:00.667Z,102528.47
2022-11-12T02:54:45.914Z,102529.41
2022-11-12T02:57:31.128Z,102530.19
2022-11-12T03:00:18.169Z,102520.91
2022-11-12T03:03:03.382Z,102519.63
2022-11-12T03:05:56.905Z,102515.81
2022-11-12T03:08:41.786Z,102511.56
2022-11-12T03:11:27.636Z,102514.81
2022-11-12T03:14:12.971Z,102512.25
2022-11-12T03:16:58.203Z,102521.38
2022-11-12T03:19:43.582Z,102520.72
2022-11-12T03:22:28.836Z,102525.19
2022-11-12T03:25:14.088Z,102508.00
2022-11-12T03:28:09.336Z,102506.63
2022-11-12T03:30:59.009Z,102520.44
2022-11-12T03:33:44.011Z,102517.69
2022-11-12T03:36:29.211Z,102522.38
2022-11-12T03:39:14.697Z,102520.06
2022-11-12T03:41:59.838Z,102526.84
2022-11-12T03:44:45.108Z,102515.53
2022-11-12T03:47:30.034Z,102521.34
2022-11-12T03:50:17.034Z,102524.25
2022-11-12T03:53:02.085Z,102517.97
2022-11-12T03:55:47.374Z,102508.44
2022-11-12T03:58:32.623Z,102501.84
2022-11-12T04:01:17.721Z,102505.63
2022-11-12T04:04:03.000Z,102500.72
2022-11-12T04:07:06.918Z,102506.78
2022-11-12T04:09:52.044Z,102506.56
2022-11-12T04:12:55.591Z,102512.84
2022-11-12T04:15:40.973Z,102511.81
2022-11-12T04:18:55.494Z,102496.75
2022-11-12T04:21:56.454Z,102502.44
2022-11-12T04:25:01.708Z,102505.22
2022-11-12T04:27:47.091Z,102489.16
2022-11-12T04:30:32.355Z,102495.84
2022-11-12T04:33:17.415Z,102497.06
2022-11-12T04:36:02.806Z,102502.28
2022-11-12T04:38:47.973Z,102496.66
2022-11-12T04:41:51.780Z,102500.81
2022-11-12T04:44:55.592Z,102494.09
2022-11-12T04:47:43.882Z,102499.13
2022-11-12T04:50:29.196Z,102488.97
2022-11-12T04:53:15.088Z,102485.50
2022-11-12T04:55:59.971Z,102486.28
2022-11-12T04:58:45.192Z,102494.00
2022-11-12T05:01:30.465Z,102483.72
2022-11-12T05:04:16.023Z,102485.16
2022-11-12T05:07:01.506Z,102483.22
2022-11-12T05:09:46.505Z,102494.09
2022-11-12T05:12:31.720Z,102495.88
2022-11-12T05:15:16.830Z,102487.94
2022-11-12T05:18:02.184Z,102491.75
2022-11-12T05:20:47.337Z,102490.75
2022-11-12T05:23:32.531Z,102489.28
2022-11-12T05:26:17.869Z,102481.91
2022-11-12T05:29:08.465Z,102481.91
2022-11-12T05:31:54.426Z,102491.03
2022-11-12T05:34:39.485Z,102492.63
2022-11-12T05:37:24.852Z,102488.28
2022-11-12T05:40:10.384Z,102488.47
2022-11-12T05:42:55.340Z,102476.31
2022-11-12T05:45:43.565Z,102481.13
2022-11-12T05:48:29.379Z,102476.53
2022-11-12T05:51:14.860Z,102471.50
2022-11-12T05:54:00.546Z,102471.28
2022-11-12T05:56:45.929Z,102476.66
2022-11-12T05:59:30.921Z,102473.53
2022-11-12T06:02:16.213Z,102482.25
2022-11-12T06:05:01.237Z,102475.53
2022-11-12T06:07:46.471Z,102486.72
2022-11-12T06:10:33.184Z,102473.66
2022-11-12T06:13:18.770Z,102491.66
2022-11-12T06:16:04.303Z,102495.66
2022-11-12T06:18:49.506Z,102492.31
2022-11-12T06:21:34.828Z,102484.13
2022-11-12T06:24:20.546Z,102489.63
2022-11-12T06:27:05.787Z,102492.88
2022-11-12T06:29:51.312Z,102492.75
2022-11-12T06:32:36.809Z,102487.84
2022-11-12T06:35:21.655Z,102475.34
2022-11-12T06:38:06.747Z,102500.34
2022-11-12T06:40:51.981Z,102494.00
2022-11-12T06:43:37.621Z,102500.34
2022-11-12T06:46:23.075Z,102500.25
2022-11-12T06:49:08.181Z,102492.50
2022-11-12T06:51:53.605Z,102496.09
2022-11-12T06:54:38.984Z,102491.66
2022-11-12T06:57:24.271Z,102491.41
2022-11-12T07:00:11.776Z,102485.94
2022-11-12T07:02:56.784Z,102495.78
2022-11-12T07:05:41.943Z,102484.91
2022-11-12T07:08:27.422Z,102497.00
2022-11-12T07:11:13.436Z,102503.25
2022-11-12T07:13:58.759Z,102501.47
2022-11-12T07:16:44.172Z,102502.91
2022-11-12T07:19:29.540Z,102501.22
2022-11-12T07:22:14.906Z,102507.28
2022-11-12T07:25:00.254Z,102515.75
2022-11-12T07:27:45.437Z,102508.94
2022-11-12T07:30:30.725Z,102506.59
2022-11-12T07:33:15.770Z,102509.06
2022-11-12T07:36:03.925Z,102517.66
2022-11-12T07:38:52.383Z,102516.88
2022-11-12T07:41:37.247Z,102514.19
2022-11-12T07:44:22.279Z,102521.56
2022-11-12T07:47:07.682Z,102513.50
2022-11-12T07:49:52.854Z,102510.72
2022-11-12T07:52:38.236Z,102506.53
2022-11-12T07:55:23.384Z,102495.47
2022-11-12T07:58:08.718Z,102508.13
2022-11-12T08:00:54.129Z,102502.59
2022-11-12T08:03:39.049Z,102512.75
2022-11-12T08:06:24.352Z,102516.31
2022-11-12T08:09:10.172Z,102513.72
2022-11-12T08:11:55.084Z,102515.81
2022-11-12T08:14:48.199Z,102520.94
2022-11-12T08:17:37.777Z,102517.72
2022-11-12T08:20:23.204Z,102511.06
2022-11-12T08:23:09.480Z,102513.81
2022-11-12T08:26:01.109Z,102516.53
2022-11-12T08:28:46.917Z,102521.31
2022-11-12T08:31:32.287Z,102520.34
2022-11-12T08:34:22.472Z,102524.41
2022-11-12T08:37:08.219Z,102517.06
2022-11-12T08:39:53.539Z,102519.47
2022-11-12T08:42:39.099Z,102524.00
2022-11-12T08:45:24.574Z,102523.31
2022-11-12T08:48:14.425Z,102528.59
2022-11-12T08:51:02.488Z,102521.03
2022-11-12T08:53:47.970Z,102517.56
2022-11-12T08:56:34.051Z,102521.44
2022-11-12T08:59:18.967Z,102520.81
2022-11-12T09:02:04.019Z,102504.88
2022-11-12T09:04:49.315Z,102510.94
2022-11-12T09:07:49.311Z,102510.47
2022-11-12T09:10:36.473Z,102504.22
2022-11-12T09:13:22.048Z,102514.41
2022-11-12T09:16:09.051Z,102508.75
2022-11-12T09:18:54.025Z,102512.59
2022-11-12T09:21:39.736Z,102514.47
2022-11-12T09:24:24.912Z,102512.28
2022-11-12T09:27:10.315Z,102516.84
2022-11-12T09:29:55.793Z,102528.88
2022-11-12T09:32:41.207Z,102530.81
2022-11-12T09:35:26.699Z,102524.94
2022-11-12T09:38:12.238Z,102518.09
2022-11-12T09:41:09.538Z,102520.38
2022-11-12T09:44:01.228Z,102519.19
2022-11-12T09:47:02.522Z,102520.59
2022-11-12T09:50:22.770Z,102514.19
2022-11-12T09:53:37.083Z,102517.63
2022-11-12T09:56:26.144Z,102523.47
2022-11-12T09:59:13.186Z,102517.34
2022-11-12T10:02:16.942Z,102517.84
2022-11-12T10:05:32.383Z,102519.94
2022-11-12T10:08:20.197Z,102523.06
2022-11-12T10:11:20.496Z,102502.75
2022-11-12T10:14:34.570Z,102511.13
2022-11-12T10:17:41.807Z,102497.78
2022-11-12T10:20:38.764Z,102501.78
2022-11-12T10:23:36.868Z,102497.09
2022-11-12T10:26:24.705Z,102493.91
2022-11-12T10:29:32.485Z,102497.16
2022-11-12T10:32:17.732Z,102490.19
2022-11-12T10:35:03.761Z,102492.91
2022-11-12T10:38:19.859Z,102499.59
2022-11-12T10:41:32.368Z,102497.88
2022-11-12T10:44:26.218Z,102496.59
2022-11-12T10:47:32.477Z,102498.19
2022-11-12T10:50:21.973Z,102491.44
2022-11-12T10:53:10.260Z,102498.09
2022-11-12T10:56:04.013Z,102503.25
2022-11-12T10:59:14.799Z,102487.72
2022-11-12T11:02:01.261Z,102488.22
2022-11-12T11:04:46.613Z,102490.09
2022-11-12T11:07:31.796Z,102480.84
2022-11-12T11:10:46.454Z,102482.31
2022-11-12T11:13:31.695Z,102468.41
2022-11-12T11:16:28.892Z,102471.41
2022-11-12T11:19:13.983Z,102465.47
2022-11-12T11:22:13.333Z,102471.88
2022-11-12T11:25:10.496Z,102461.81
2022-11-12T11:28:14.203Z,102458.59
2022-11-12T11:31:07.432Z,102456.09
2022-11-12T11:34:15.967Z,102459.50
2022-11-12T11:37:06.244Z,102451.50
2022-11-12T11:39:55.903Z,102450.44
2022-11-12T11:43:03.075Z,102460.97
2022-11-12T11:46:00.240Z,102452.94
2022-11-12T11:49:24.548Z,102455.00
2022-11-12T11:52:18.671Z,102452.75
2022-11-12T11:55:09.708Z,102447.22
2022-11-12T11:58:40.050Z,102446.75
2022-11-12T12:01:56.232Z,102437.56
2022-11-12T12:05:05.783Z,102431.53
2022-11-12T12:08:06.335Z,102440.59
2022-11-12T12:11:12.076Z,102442.81
2022-11-12T12:14:09.505Z,102449.16
2022-11-12T12:17:26.647Z,102440.03
2022-11-12T12:20:22.533Z,102427.09
2022-11-12T12:23:30.574Z,102429.09
2022-11-12T12:26:32.828Z,102423.00
2022-11-12T12:29:42.009Z,102428.16
2022-11-12T12:32:32.843Z,102426.19
2022-11-12T12:35:31.466Z,102423.09
2022-11-12T12:38:38.855Z,102415.75
2022-11-12T12:41:32.796Z,102405.19
2022-11-12T12:44:18.222Z,102405.28
2022-11-12T12:47:04.019Z,102386.22
2022-11-12T12:49:51.385Z,102403.19
2022-11-12T12:53:05.512Z,102408.06
2022-11-12T12:55:54.857Z,102407.69
2022-11-12T12:58:40.312Z,102398.28
2022-11-12T13:01:32.146Z,102398.47
2022-11-12T13:04:17.141Z,102394.47
2022-11-12T13:07:05.304Z,102386.78
2022-11-12T13:09:52.687Z,102385.19
2022-11-12T13:13:15.520Z,102387.97
2022-11-12T13:16:02.844Z,102366.41
2022-11-12T13:18:50.755Z,102377.38
2022-11-12T13:21:35.944Z,102378.28
2022-11-12T13:25:04.710Z,102374.88
2022-11-12T13:27:49.726Z,102374.91
2022-11-12T13:30:35.126Z,102373.06
2022-11-12T13:33:30.979Z,102372.41
2022-11-12T13:36:27.862Z,102362.75
2022-11-12T13:39:17.753Z,102367.19
2022-11-12T13:42:31.486Z,102366.34
2022-11-12T13:45:19.454Z,102365.31
2022-11-12T13:48:15.154Z,102362.91
2022-11-12T13:51:12.723Z,102366.50
2022-11-12T13:53:58.431Z,102376.88
2022-11-12T13:56:43.981Z,102373.59
2022-11-12T13:59:29.297Z,102364.88
2022-11-12T14:02:26.255Z,102373.44
2022-11-12T14:05:17.867Z,102377.22
2022-11-12T14:08:30.345Z,102377.31
2022-11-12T14:11:36.816Z,102379.31
2022-11-12T14:14:40.722Z,102366.97
2022-11-12T14:17:52.105Z,102365.19
2022-11-12T14:20:41.195Z,102367.69
2022-11-12T14:23:26.718Z,102369.38
2022-11-12T14:26:13.240Z,102364.06
2022-11-12T14:28:59.250Z,102367.44
2022-11-12T14:31:44.864Z,102371.91
2022-11-12T14:34:33.059Z,102369.28
2022-11-12T14:37:39.852Z,102359.53
2022-11-12T14:40:29.460Z,102344.34
2022-11-12T14:43:27.700Z,102362.88
2022-11-12T14:46:29.088Z,102357.38
2022-11-12T14:49:22.277Z,102355.41
2022-11-12T14:52:13.610Z,102348.88
2022-11-12T14:55:09.036Z,102341.72
2022-11-12T14:57:58.700Z,102347.75
2022-11-12T15:00:45.712Z,102353.72
2022-11-12T15:03:32.528Z,102349.34
2022-11-12T15:06:29.550Z,102354.13
2022-11-12T15:09:18.808Z,102347.88
2022-11-12T15:12:09.539Z,102344.81
2022-11-12T15:15:08.550Z,102341.16
2022-11-12T15:17:59.391Z,102333.94
2022-11-12T15:20:45.229Z,102334.25
2022-11-12T15:23:30.681Z,102341.13
2022-11-12T15:26:33.657Z,102338.50
2022-11-12T15:29:27.716Z,102329.34
2022-11-12T15:32:14.146Z,102338.31
2022-11-12T15:34:59.406Z,102326.13
2022-11-12T15:37:44.779Z,102322.31
2022-11-12T15:40:32.299Z,102326.63
2022-11-12T15:43:21.417Z,102325.31
2022-11-12T15:46:17.605Z,102319.31
2022-11-12T15:49:02.657Z,102321.25
2022-11-12T15:51:48.155Z,102320.13
2022-11-12T15:54:36.872Z,102322.22
2022-11-12T15:57:29.232Z,102318.41
2022-11-12T16:00:19.866Z,102323.31
2022-11-12T16:03:13.798Z,102325.75
2022-11-12T16:06:02.653Z,102332.25
2022-11-12T16:08:52.469Z,102323.63
2022-11-12T16:11:37.876Z,102323.53
2022-11-12T16:14:25.035Z,102317.00
2022-11-12T16:17:16.233Z,102316.22
2022-11-12T16:20:01.612Z,102307.47
2022-11-12T16:22:47.979Z,102314.88
2022-11-12T16:25:36.177Z,102322.13
2022-11-12T16:28:21.114Z,102315.47
2022-11-12T16:31:06.754Z,102328.53
2022-11-12T16:33:52.384Z,102330.34
2022-11-12T16:36:39.755Z,102331.13
2022-11-12T16:39:25.315Z,102322.31
2022-11-12T16:42:10.912Z,102331.56
2022-11-12T16:44:55.799Z,102332.88
2022-11-12T16:47:47.723Z,102324.69
2022-11-12T16:50:33.188Z,102330.50
2022-11-12T16:53:18.569Z,102328.38
2022-11-12T16:56:04.081Z,102336.56
2022-11-12T16:58:49.789Z,102328.00
2022-11-12T17:01:35.141Z,102328.44
2022-11-12T17:04:20.503Z,102327.00
2022-11-12T17:07:05.926Z,102327.44
2022-11-12T17:09:52.836Z,102336.91
2022-11-12T17:12:38.011Z,102326.50
2022-11-12T17:15:23.333Z,102329.69
2022-11-12T17:18:09.673Z,102328.34
2022-11-12T17:20:55.285Z,102325.47
2022-11-12T17:23:42.261Z,102320.56
2022-11-12T17:26:29.008Z,102318.53
2022-11-12T17:29:14.213Z,102325.16
2022-11-12T17:31:59.593Z,102291.44
2022-11-12T17:34:44.766Z,102308.44
2022-11-12T17:37:29.807Z,102310.88
2022-11-12T17:40:15.602Z,102314.53
2022-11-12T17:43:00.861Z,102309.00
2022-11-12T17:45:53.664Z,102316.88
2022-11-12T17:48:39.321Z,102303.88
2022-11-12T17:51:26.776Z,102315.66
2022-11-12T17:54:12.554Z,102310.09
2022-11-12T17:56:58.042Z,102318.88
2022-11-12T17:59:43.048Z,102312.28
2022-11-12T18:02:28.308Z,102303.28
2022-11-12T18:05:13.561Z,102297.78
2022-11-12T18:07:59.066Z,102298.47
2022-11-12T18:10:45.547Z,102297.31
2022-11-12T18:13:31.088Z,102309.91
2022-11-12T18:16:20.649Z,102307.78
2022-11-12T18:19:05.963Z,102302.66
2022-11-12T18:21:52.851Z,102300.66
2022-11-12T18:24:37.953Z,102308.81
2022-11-12T18:27:23.213Z,102300.78
2022-11-12T18:30:08.944Z,102293.16
2022-11-12T18:32:54.107Z,102291.22
2022-11-12T18:35:39.353Z,102291.13
2022-11-12T18:38:24.653Z,102285.22
2022-11-12T18:41:12.139Z,102294.38
2022-11-12T18:43:57.659Z,102294.84
2022-11-12T18:46:43.252Z,102295.38
2022-11-12T18:49:28.388Z,102286.94
2022-11-12T18:52:13.855Z,102292.25
2022-11-12T18:54:59.111Z,102285.75
2022-11-12T18:57:44.453Z,102289.81
2022-11-12T19:00:29.721Z,102287.31
2022-11-12T19:03:14.936Z,102277.50
2022-11-12T19:06:01.771Z,102279.28
2022-11-12T19:08:47.842Z,102275.16
2022-11-12T19:11:33.383Z,102276.19
2022-11-12T19:14:18.759Z,102288.78
2022-11-12T19:17:04.104Z,102279.75
2022-11-12T19:19:49.572Z,102266.56
2022-11-12T19:22:35.229Z,102283.94
2022-11-12T19:25:20.686Z,102283.63
2022-11-12T19:28:05.929Z,102281.34
2022-11-12T19:30:54.814Z,102278.72
2022-11-12T19:33:40.232Z,102275.38
2022-11-12T19:36:26.267Z,102283.75
2022-11-12T19:39:11.600Z,102282.41
2022-11-12T19:41:57.128Z,102284.34
2022-11-12T19:44:42.379Z,102275.56
2022-11-12T19:47:27.662Z,102281.28
2022-11-12T19:50:12.610Z,102270.84
2022-11-12T19:52:58.059Z,102272.03
2022-11-12T19:55:44.200Z,102266.78
2022-11-12T19:58:31.780Z,102266.03
2022-11-12T20:01:18.907Z,102269.81
2022-11-12T20:04:04.490Z,102268.56
2022-11-12T20:06:49.783Z,102260.69
2022-11-12T20:09:35.018Z,102268.03
2022-11-12T20:12:20.246Z,102265.06
2022-11-12T20:15:06.378Z,102254.63
2022-11-12T20:17:51.635Z,102254.47
2022-11-12T20:20:37.079Z,102255.28
2022-11-12T20:23:27.027Z,102250.72
2022-11-12T20:26:15.001Z,102252.78
2022-11-12T20:29:00.187Z,102244.94
2022-11-12T20:31:45.765Z,102246.09
2022-11-12T20:34:30.998Z,102246.88
2022-11-12T20:37:16.408Z,102245.00
2022-11-12T20:40:02.278Z,102250.81
2022-11-12T20:42:47.666Z,102247.84
2022-11-12T20:45:33.753Z,102242.59
2022-11-12T20:48:20.214Z,102236.38
2022-11-12T20:51:23.331Z,102241.88
2022-11-12T20:54:10.603Z,102240.91
2022-11-12T20:56:56.151Z,102226.53
2022-11-12T20:59:41.244Z,102230.41
2022-11-12T21:02:26.593Z,102235.13
2022-11-12T21:05:12.354Z,102235.50
2022-11-12T21:07:57.453Z,102230.47
2022-11-12T21:10:42.941Z,102225.13
2022-11-12T21:13:28.374Z,102228.38
2022-11-12T21:16:14.604Z,102211.41
2022-11-12T21:19:01.489Z,102214.16
2022-11-12T21:21:46.598Z,102216.59
2022-11-12T21:24:31.931Z,102223.13
2022-11-12T21:27:17.135Z,102210.13
2022-11-12T21:30:02.530Z,102206.50
2022-11-12T21:32:48.903Z,102210.78
2022-11-12T21:35:34.264Z,102209.16
2022-11-12T21:38:19.311Z,102200.50
2022-11-12T21:41:10.410Z,102197.19
2022-11-12T21:43:55.623Z,102183.47
2022-11-12T21:46:40.752Z,102193.22
2022-11-12T21:49:26.083Z,102187.16
2022-11-12T21:52:12.849Z,102197.19
2022-11-12T21:54:57.872Z,102187.84
2022-11-12T21:57:43.207Z,102194.44
2022-11-12T22:00:41.715Z,102193.34
2022-11-12T22:03:30.910Z,102197.75
2022-11-12T22:06:17.224Z,102190.16
2022-11-12T22:09:03.105Z,102189.84
2022-11-12T22:11:48.423Z,102187.94
2022-11-12T22:14:33.730Z,102189.09
2022-11-12T22:17:18.930Z,102187.41
2022-11-12T22:20:05.080Z,102183.78
2022-11-12T22:22:51.670Z,102193.13
2022-11-12T22:25:36.636Z,102199.91
2022-11-12T22:28:22.128Z,102191.44
2022-11-12T22:31:13.195Z,102190.72
2022-11-12T22:34:00.319Z,102184.41
2022-11-12T22:36:45.691Z,102179.81
2022-11-12T22:39:31.074Z,102180.59
2022-11-12T22:42:16.321Z,102180.22
2022-11-12T22:45:01.640Z,102178.97
2022-11-12T22:47:46.840Z,102169.22
2022-11-12T22:50:32.251Z,102166.16
2022-11-12T22:53:17.637Z,102167.34
2022-11-12T22:56:05.102Z,102164.84
2022-11-12T22:58:51.316Z,102174.66
2022-11-12T23:01:36.573Z,102167.09
2022-11-12T23:04:21.993Z,102167.13
2022-11-12T23:07:07.563Z,102160.94
2022-11-12T23:09:52.683Z,102166.09
2022-11-12T23:12:38.036Z,102153.09
2022-11-12T23:15:22.899Z,102158.78
2022-11-12T23:18:08.335Z,102149.44
2022-11-12T23:20:53.645Z,102155.31
2022-11-12T23:23:38.986Z,102163.28
2022-11-12T23:26:26.116Z,102154.91
2022-11-12T23:29:11.981Z,102155.94
2022-11-12T23:31:57.283Z,102141.81
2022-11-12T23:34:42.656Z,102146.09
2022-11-12T23:37:27.832Z,102140.94
2022-11-12T23:40:13.345Z,102146.97
2022-11-12T23:42:58.444Z,102129.97
2022-11-12T23:45:43.671Z,102126.31
2022-11-12T23:48:29.414Z,102132.28
2022-11-12T23:51:20.126Z,102128.81
2022-11-12T23:54:05.607Z,102121.06
2022-11-12T23:56:50.924Z,102118.50
2022-11-12T23:59:36.183Z,102121.56
